Time;durP1;ratioP1;P1;durP2;ratioP2;P2;SDS_P1;SDS_P2;PMS_P1;PMS_P2;Temp;Humidity;BMP_temperature;BMP_pressure;BME280_temperature;BME280_humidity;BME280_pressure;Samples;Min_cycle;Max_cycle;Signal;HPM_P1;HPM_P2
2022/01/06 00:00:22;;;;;;;;;;;0.40;99.90;;;;;;5153448;27;19915;-77
2022/01/06 00:02:47;;;;;;;;;;;0.40;99.90;;;;;;5152509;27;19922;-77
2022/01/06 00:05:13;;;;;;;;;;;0.40;99.90;;;;;;5153456;27;19907;-76
2022/01/06 00:07:39;;;;;;;;;;;0.40;99.90;;;;;;5152621;27;19907;-77
2022/01/06 00:10:07;;;;;;;;;;;0.40;99.90;;;;;;5153527;27;19907;-77
2022/01/06 00:12:41;;;;;;;;;;;0.40;99.90;;;;;;5134250;27;19907;-77
2022/01/06 00:15:11;;;;;;;;;;;0.40;99.90;;;;;;5153470;27;20018;-76
2022/01/06 00:18:24;;;;;;;;;;;0.50;99.90;;;;;;5152037;27;19908;-77
2022/01/06 00:23:30;;;;;;;;;;;0.50;99.90;;;;;;5153112;27;19949;-77
2022/01/06 00:25:57;;;;;;;;;;;0.40;99.90;;;;;;5153374;27;19911;-78
2022/01/06 00:28:23;;;;;;;;;;;0.40;99.90;;;;;;5152957;27;20371;-77
2022/01/06 00:30:49;;;;;;;;;;;0.40;99.90;;;;;;5152435;27;19945;-78
2022/01/06 00:33:14;;;;;;;;;;;0.40;99.90;;;;;;5153124;27;19908;-77
2022/01/06 00:35:40;;;;;;;;;;;0.40;99.90;;;;;;5152481;27;19907;-78
2022/01/06 00:38:07;;;;;;;;;;;0.40;99.90;;;;;;5152703;27;19907;-77
2022/01/06 00:40:33;;;;;;;;;;;0.30;99.90;;;;;;5154132;27;19922;-76
2022/01/06 00:42:59;;;;;;;;;;;0.30;99.90;;;;;;5156555;27;19918;-77
2022/01/06 00:45:24;;;;;;;;;;;0.30;99.90;;;;;;5157315;27;19907;-77
2022/01/06 00:47:50;;;;;;;;;;;0.20;99.90;;;;;;5156716;27;19937;-77
2022/01/06 00:50:15;;;;;;;;;;;0.20;99.90;;;;;;5157818;27;19939;-77
2022/01/06 00:52:41;;;;;;;;;;;0.20;99.90;;;;;;5157157;27;20370;-77
2022/01/06 00:55:07;;;;;;;;;;;0.20;99.90;;;;;;5157650;27;19914;-77
2022/01/06 00:57:33;;;;;;;;;;;0.20;99.90;;;;;;5156765;27;19907;-77
2022/01/06 00:59:58;;;;;;;;;;;0.30;99.90;;;;;;5157524;27;20252;-76
2022/01/06 01:02:24;;;;;;;;;;;0.20;99.90;;;;;;5157639;27;19919;-76
2022/01/06 01:04:49;;;;;;;;;;;0.20;99.90;;;;;;5156904;27;19914;-76
2022/01/06 01:07:15;;;;;;;;;;;0.20;99.90;;;;;;5157689;27;20068;-77
2022/01/06 01:09:41;;;;;;;;;;;0.20;99.90;;;;;;5138319;27;19911;-77
2022/01/06 01:12:07;;;;;;;;;;;0.20;99.90;;;;;;5157505;27;20362;-77
2022/01/06 01:14:43;;;;;;;;;;;0.20;99.90;;;;;;5156598;27;19907;-75
2022/01/06 01:17:14;;;;;;;;;;;0.20;99.90;;;;;;5157487;27;19911;-77
2022/01/06 01:19:39;;;;;;;;;;;0.20;99.90;;;;;;5156364;27;20021;-76
2022/01/06 01:22:05;;;;;;;;;;;0.20;99.90;;;;;;5157347;27;19998;-76
2022/01/06 01:24:31;;;;;;;;;;;0.30;99.90;;;;;;5138415;27;19907;-76
2022/01/06 01:26:57;;;;;;;;;;;0.30;99.90;;;;;;5151126;27;19998;-77
2022/01/06 01:29:22;;;;;;;;;;;0.30;99.90;;;;;;5136194;27;20272;-75
2022/01/06 01:31:51;;;;;;;;;;;0.30;99.90;;;;;;5135351;27;20006;-76
2022/01/06 01:34:24;;;;;;;;;;;0.40;99.90;;;;;;5136340;27;19943;-75
2022/01/06 01:36:50;;;;;;;;;;;0.40;99.90;;;;;;5135463;27;19907;-77
2022/01/06 01:39:15;;;;;;;;;;;0.40;99.90;;;;;;5136099;27;19921;-76
2022/01/06 01:41:41;;;;;;;;;;;0.50;99.90;;;;;;5135440;27;19998;-77
2022/01/06 01:44:12;;;;;;;;;;;0.50;99.90;;;;;;5136073;27;19911;-77
2022/01/06 01:46:44;;;;;;;;;;;0.50;99.90;;;;;;5135176;27;19907;-77
2022/01/06 01:49:16;;;;;;;;;;;0.50;99.90;;;;;;5136091;27;20272;-77
2022/01/06 01:51:42;;;;;;;;;;;0.50;99.90;;;;;;5142857;27;19904;-76
2022/01/06 01:54:08;;;;;;;;;;;0.60;99.90;;;;;;5148641;27;19907;-76
2022/01/06 01:56:34;;;;;;;;;;;0.60;99.90;;;;;;5126085;27;19960;-76
2022/01/06 01:58:59;;;;;;;;;;;0.50;99.90;;;;;;5135485;27;19939;-76
2022/01/06 02:01:25;;;;;;;;;;;0.50;99.90;;;;;;5135862;27;20001;-77
2022/01/06 02:03:53;;;;;;;;;;;0.50;99.90;;;;;;5134498;27;20433;-77
2022/01/06 02:06:19;;;;;;;;;;;0.50;99.90;;;;;;5135558;27;20261;-77
2022/01/06 02:08:44;;;;;;;;;;;0.50;99.90;;;;;;5134867;27;20378;-78
2022/01/06 02:11:10;;;;;;;;;;;0.60;99.90;;;;;;5135370;27;19914;-77
2022/01/06 02:13:48;;;;;;;;;;;0.60;99.90;;;;;;5134791;27;19914;-77
2022/01/06 02:16:14;;;;;;;;;;;0.70;99.90;;;;;;5135641;27;19919;-77
2022/01/06 02:18:39;;;;;;;;;;;0.70;99.90;;;;;;5134651;27;19915;-76
2022/01/06 02:21:05;;;;;;;;;;;0.80;99.90;;;;;;5135511;27;19950;-77
2022/01/06 02:23:30;;;;;;;;;;;0.80;99.90;;;;;;5134976;27;19908;-76
2022/01/06 02:25:56;;;;;;;;;;;0.90;99.90;;;;;;5134592;27;19994;-76
2022/01/06 02:28:25;;;;;;;;;;;0.90;99.90;;;;;;5134903;27;19959;-76
2022/01/06 02:30:51;;;;;;;;;;;1.10;99.90;;;;;;5134420;27;19988;-77
2022/01/06 02:33:18;;;;;;;;;;;1.10;99.90;;;;;;5116898;27;19951;-77
2022/01/06 02:35:44;;;;;;;;;;;1.20;99.90;;;;;;5134449;27;19919;-76
2022/01/06 02:38:10;;;;;;;;;;;1.30;99.90;;;;;;5135066;27;19907;-75
2022/01/06 02:40:36;;;;;;;;;;;1.40;99.90;;;;;;5134599;27;19916;-75
2022/01/06 02:43:05;;;;;;;;;;;1.60;99.90;;;;;;5134634;27;19907;-75
2022/01/06 02:45:31;;;;;;;;;;;1.80;99.90;;;;;;5134909;27;19907;-76
2022/01/06 02:47:56;;;;;;;;;;;2.00;99.90;;;;;;5133742;27;19911;-76
2022/01/06 02:50:23;;;;;;;;;;;2.00;99.90;;;;;;5135087;27;20313;-76
2022/01/06 02:52:48;;;;;;;;;;;2.10;99.90;;;;;;5134012;27;19907;-75
2022/01/06 02:55:14;;;;;;;;;;;2.20;99.90;;;;;;5134658;27;19956;-78
2022/01/06 02:57:40;;;;;;;;;;;2.30;99.90;;;;;;5133649;27;19908;-75
2022/01/06 03:00:07;;;;;;;;;;;2.30;99.90;;;;;;5134887;27;19916;-77
2022/01/06 03:02:32;;;;;;;;;;;2.30;99.90;;;;;;5134051;27;20424;-77
2022/01/06 03:04:58;;;;;;;;;;;2.40;99.90;;;;;;5133601;27;19998;-77
2022/01/06 03:07:26;;;;;;;;;;;2.40;99.90;;;;;;5134254;27;19912;-76
2022/01/06 03:09:54;;;;;;;;;;;2.50;99.90;;;;;;5133510;27;19908;-76
2022/01/06 03:12:26;;;;;;;;;;;2.60;99.90;;;;;;5134463;27;19907;-76
2022/01/06 03:14:52;;;;;;;;;;;2.60;99.90;;;;;;5133348;27;19929;-76
2022/01/06 03:17:17;;;;;;;;;;;2.60;99.90;;;;;;5134146;27;19907;-76
2022/01/06 03:19:44;;;;;;;;;;;2.60;99.90;;;;;;5133397;27;20052;-76
2022/01/06 03:22:10;;;;;;;;;;;2.70;99.90;;;;;;5134315;27;19911;-77
2022/01/06 03:24:36;;;;;;;;;;;2.70;99.90;;;;;;5134518;27;19907;-77
2022/01/06 03:27:01;;;;;;;;;;;2.70;99.90;;;;;;5133700;27;19917;-77
2022/01/06 03:29:27;;;;;;;;;;;2.70;99.90;;;;;;5133809;27;19911;-77
2022/01/06 03:31:52;;;;;;;;;;;2.70;99.90;;;;;;5133699;27;20002;-77
2022/01/06 03:34:18;;;;;;;;;;;2.70;99.90;;;;;;5133723;27;19960;-76
2022/01/06 03:36:44;;;;;;;;;;;2.70;99.90;;;;;;5133069;27;19919;-77
2022/01/06 03:39:09;;;;;;;;;;;2.70;99.90;;;;;;5133662;27;19922;-77
2022/01/06 03:41:35;;;;;;;;;;;2.70;99.90;;;;;;5133921;27;19912;-76
2022/01/06 03:44:00;;;;;;;;;;;2.60;99.90;;;;;;5133296;27;19952;-77
2022/01/06 03:46:26;;;;;;;;;;;2.60;99.90;;;;;;5133709;27;19908;-77
2022/01/06 03:48:52;;;;;;;;;;;2.60;99.90;;;;;;5132904;27;19914;-77
2022/01/06 03:51:20;;;;;;;;;;;2.50;99.90;;;;;;5133453;27;19914;-76
2022/01/06 03:53:46;;;;;;;;;;;2.50;99.90;;;;;;5114569;27;19920;-76
2022/01/06 03:56:12;;;;;;;;;;;2.60;99.90;;;;;;5133756;27;19907;-76
2022/01/06 03:58:39;;;;;;;;;;;2.60;99.90;;;;;;5133513;27;20376;-76
2022/01/06 04:01:08;;;;;;;;;;;2.70;99.90;;;;;;5133121;27;19907;-75
2022/01/06 04:03:34;;;;;;;;;;;2.80;99.90;;;;;;5133704;28;19924;-75
2022/01/06 04:05:59;;;;;;;;;;;2.90;99.90;;;;;;5132482;27;20415;-75
2022/01/06 04:08:25;;;;;;;;;;;3.00;99.90;;;;;;5133518;27;19908;-75
2022/01/06 04:10:50;;;;;;;;;;;3.00;99.90;;;;;;5132362;27;20291;-75
2022/01/06 04:13:16;;;;;;;;;;;3.00;99.90;;;;;;5133450;28;19907;-76
2022/01/06 04:15:43;;;;;;;;;;;3.10;99.90;;;;;;5132319;27;19995;-76
2022/01/06 04:18:09;;;;;;;;;;;3.10;99.90;;;;;;5133247;28;19908;-75
2022/01/06 04:20:35;;;;;;;;;;;3.10;99.90;;;;;;5133369;28;19995;-76
2022/01/06 04:23:00;;;;;;;;;;;3.10;99.90;;;;;;5134209;28;20052;-76
2022/01/06 04:25:26;;;;;;;;;;;3.10;99.90;;;;;;5147896;28;19915;-76
2022/01/06 04:27:51;;;;;;;;;;;3.20;99.90;;;;;;5141095;28;20409;-76
2022/01/06 04:30:17;;;;;;;;;;;3.20;99.90;;;;;;5133595;28;19916;-76
2022/01/06 04:32:42;;;;;;;;;;;3.30;99.90;;;;;;5133328;28;20317;-76
2022/01/06 04:35:08;;;;;;;;;;;3.30;99.90;;;;;;5132823;28;19908;-76
2022/01/06 04:37:34;;;;;;;;;;;3.40;99.90;;;;;;5133721;28;20270;-76
2022/01/06 04:39:59;;;;;;;;;;;3.70;99.90;;;;;;5132433;28;19915;-76
2022/01/06 04:42:25;;;;;;;;;;;3.80;99.90;;;;;;5132752;28;19930;-75
2022/01/06 04:44:50;;;;;;;;;;;4.10;99.90;;;;;;5132313;28;19908;-76
2022/01/06 04:47:16;;;;;;;;;;;4.20;99.90;;;;;;5133475;28;19927;-76
2022/01/06 04:49:42;;;;;;;;;;;4.40;99.90;;;;;;5133219;28;19914;-75
2022/01/06 04:52:07;;;;;;;;;;;4.50;99.90;;;;;;5132191;28;20378;-76
2022/01/06 04:54:33;;;;;;;;;;;4.70;99.90;;;;;;5133026;28;19907;-76
2022/01/06 04:56:58;;;;;;;;;;;4.90;99.90;;;;;;5132628;28;19940;-76
2022/01/06 04:59:24;;;;;;;;;;;4.90;99.90;;;;;;5132633;28;19919;-76
2022/01/06 05:01:50;;;;;;;;;;;5.00;99.90;;;;;;5131917;28;19960;-76
2022/01/06 05:04:15;;;;;;;;;;;5.10;99.90;;;;;;5133015;28;20368;-76
2022/01/06 05:06:41;;;;;;;;;;;5.10;99.90;;;;;;5133068;28;19907;-76
2022/01/06 05:09:06;;;;;;;;;;;5.10;99.90;;;;;;5131939;28;19976;-76
2022/01/06 05:11:32;;;;;;;;;;;5.20;99.90;;;;;;5133267;28;19908;-78
2022/01/06 05:13:57;;;;;;;;;;;5.10;99.90;;;;;;5131940;28;20424;-76
2022/01/06 05:16:23;;;;;;;;;;;5.20;99.90;;;;;;5132895;28;19907;-76
2022/01/06 05:18:49;;;;;;;;;;;5.30;99.90;;;;;;5131837;28;19916;-76
2022/01/06 05:21:15;;;;;;;;;;;5.20;99.90;;;;;;5134701;28;20051;-76
2022/01/06 05:23:41;;;;;;;;;;;5.20;99.90;;;;;;5132574;28;19943;-76
2022/01/06 05:26:07;;;;;;;;;;;5.20;99.90;;;;;;5132143;27;19907;-76
2022/01/06 05:28:32;;;;;;;;;;;5.30;99.90;;;;;;5136187;27;19908;-76
2022/01/06 05:30:58;;;;;;;;;;;5.40;99.90;;;;;;5117138;27;20032;-76
2022/01/06 05:33:24;;;;;;;;;;;5.40;99.90;;;;;;5136217;27;19917;-76
2022/01/06 05:35:50;;;;;;;;;;;5.40;99.90;;;;;;5135878;27;19908;-75
2022/01/06 05:38:15;;;;;;;;;;;5.50;99.90;;;;;;5117680;27;19907;-76
2022/01/06 05:40:41;;;;;;;;;;;5.50;99.90;;;;;;5136195;27;19915;-76
2022/01/06 05:43:07;;;;;;;;;;;5.50;99.90;;;;;;5135183;27;20387;-76
2022/01/06 05:45:32;;;;;;;;;;;5.60;99.90;;;;;;5136194;27;19908;-76
2022/01/06 05:47:58;;;;;;;;;;;5.70;99.90;;;;;;5134829;27;19951;-76
2022/01/06 05:50:23;;;;;;;;;;;5.70;99.90;;;;;;5136042;27;20375;-76
2022/01/06 05:52:49;;;;;;;;;;;5.80;99.90;;;;;;5117118;27;20340;-76
2022/01/06 05:55:15;;;;;;;;;;;5.80;99.90;;;;;;5135849;27;19912;-77
2022/01/06 05:57:40;;;;;;;;;;;5.80;99.90;;;;;;5117552;27;19912;-77
2022/01/06 06:00:07;;;;;;;;;;;5.70;99.90;;;;;;5134909;27;19915;-77
2022/01/06 06:02:33;;;;;;;;;;;5.70;99.90;;;;;;5135584;27;19959;-77
2022/01/06 06:04:59;;;;;;;;;;;5.80;99.90;;;;;;5135046;27;19960;-77
2022/01/06 06:07:24;;;;;;;;;;;5.80;99.90;;;;;;5135380;27;19912;-77
2022/01/06 06:09:50;;;;;;;;;;;5.80;99.90;;;;;;5135428;27;19943;-77
2022/01/06 06:12:16;;;;;;;;;;;5.80;99.90;;;;;;5135515;27;20363;-77
2022/01/06 06:14:42;;;;;;;;;;;5.80;99.90;;;;;;5135888;27;19907;-77
2022/01/06 06:17:07;;;;;;;;;;;5.90;99.90;;;;;;5134835;27;19915;-77
2022/01/06 06:19:33;;;;;;;;;;;5.90;99.90;;;;;;5135542;27;19963;-76
2022/01/06 06:21:58;;;;;;;;;;;5.90;99.90;;;;;;5134706;27;19949;-77
2022/01/06 06:24:24;;;;;;;;;;;5.90;99.90;;;;;;5135437;27;19917;-76
2022/01/06 06:26:50;;;;;;;;;;;5.90;99.90;;;;;;5135434;27;19947;-75
2022/01/06 06:29:16;;;;;;;;;;;6.00;99.90;;;;;;5134286;27;19907;-76
2022/01/06 06:31:42;;;;;;;;;;;6.00;99.90;;;;;;5134805;27;19911;-75
2022/01/06 06:34:09;;;;;;;;;;;6.00;99.90;;;;;;5134208;27;19908;-76
2022/01/06 06:36:35;;;;;;;;;;;6.00;99.90;;;;;;5135017;27;19952;-75
2022/01/06 06:39:00;;;;;;;;;;;6.00;99.90;;;;;;5133710;27;19916;-76
2022/01/06 06:41:26;;;;;;;;;;;6.00;99.90;;;;;;5134426;27;19935;-76
2022/01/06 06:43:52;;;;;;;;;;;6.00;99.90;;;;;;5115664;27;19907;-76
2022/01/06 06:46:17;;;;;;;;;;;5.90;99.90;;;;;;5134236;27;19912;-77
2022/01/06 06:48:43;;;;;;;;;;;5.90;99.90;;;;;;5135139;27;20265;-77
2022/01/06 06:51:08;;;;;;;;;;;5.90;99.90;;;;;;5134027;27;19907;-77
2022/01/06 06:53:34;;;;;;;;;;;5.80;99.90;;;;;;5134561;27;19936;-77
2022/01/06 06:55:59;;;;;;;;;;;5.80;99.90;;;;;;5133848;27;19912;-78
2022/01/06 06:58:25;;;;;;;;;;;5.80;99.90;;;;;;5134565;27;19907;-77
2022/01/06 07:00:51;;;;;;;;;;;5.80;99.90;;;;;;5134575;27;20339;-77
2022/01/06 07:03:16;;;;;;;;;;;5.70;99.90;;;;;;5133566;27;19924;-79
2022/01/06 07:05:42;;;;;;;;;;;5.70;99.90;;;;;;5134539;27;19907;-79
2022/01/06 07:08:07;;;;;;;;;;;5.70;99.90;;;;;;5134091;27;19907;-77
2022/01/06 07:10:33;;;;;;;;;;;5.70;99.90;;;;;;5134393;27;20493;-77
2022/01/06 07:12:58;;;;;;;;;;;5.60;99.90;;;;;;5133411;27;19927;-76
2022/01/06 07:15:24;;;;;;;;;;;5.60;99.90;;;;;;5134269;27;19918;-77
2022/01/06 07:17:50;;;;;;;;;;;5.60;99.90;;;;;;5134263;27;20279;-76
2022/01/06 07:20:15;;;;;;;;;;;5.70;99.90;;;;;;5133348;27;20591;-76
2022/01/06 07:22:41;;;;;;;;;;;5.70;99.90;;;;;;5134502;27;19914;-76
2022/01/06 07:25:07;;;;;;;;;;;5.70;99.90;;;;;;5133618;27;19907;-76
2022/01/06 07:27:32;;;;;;;;;;;5.70;99.90;;;;;;5133984;27;20352;-76
2022/01/06 07:29:58;;;;;;;;;;;5.70;99.90;;;;;;5133541;27;19914;-77
2022/01/06 07:32:24;;;;;;;;;;;5.70;99.90;;;;;;5133513;27;20007;-77
2022/01/06 07:34:51;;;;;;;;;;;5.70;99.90;;;;;;5133815;27;19953;-78
2022/01/06 07:37:16;;;;;;;;;;;5.70;99.90;;;;;;5141094;27;19926;-76
2022/01/06 07:39:42;;;;;;;;;;;5.70;99.90;;;;;;5135666;27;19962;-76
2022/01/06 07:42:08;;;;;;;;;;;5.70;99.90;;;;;;5132742;27;20271;-76
2022/01/06 07:44:33;;;;;;;;;;;5.70;99.90;;;;;;5133553;27;20030;-76
2022/01/06 07:46:59;;;;;;;;;;;5.70;99.90;;;;;;5133178;27;20006;-77
2022/01/06 07:49:25;;;;;;;;;;;5.70;99.90;;;;;;5132730;27;19952;-76
2022/01/06 07:51:51;;;;;;;;;;;5.70;99.90;;;;;;5133608;27;20333;-76
2022/01/06 07:54:16;;;;;;;;;;;5.90;99.90;;;;;;5132855;27;19907;-76
2022/01/06 07:56:42;;;;;;;;;;;5.90;99.90;;;;;;5133539;27;19914;-76
2022/01/06 07:59:09;;;;;;;;;;;5.90;99.90;;;;;;5132813;27;19962;-76
2022/01/06 08:01:34;;;;;;;;;;;6.00;99.90;;;;;;5133349;27;19916;-77
2022/01/06 08:04:00;;;;;;;;;;;6.00;99.90;;;;;;5132978;27;19920;-77
2022/01/06 08:06:26;;;;;;;;;;;6.00;99.90;;;;;;5114727;28;19907;-77
2022/01/06 08:08:51;;;;;;;;;;;6.00;99.90;;;;;;5133277;27;19907;-76
2022/01/06 08:11:17;;;;;;;;;;;6.10;99.90;;;;;;5132403;27;19982;-77
2022/01/06 08:13:42;;;;;;;;;;;6.20;99.90;;;;;;5132997;28;20340;-77
2022/01/06 08:16:08;;;;;;;;;;;6.30;99.90;;;;;;5132394;28;19914;-77
2022/01/06 08:18:34;;;;;;;;;;;6.30;99.90;;;;;;5133289;27;19918;-78
2022/01/06 08:20:59;;;;;;;;;;;6.40;99.90;;;;;;5132570;28;19907;-76
2022/01/06 08:23:25;;;;;;;;;;;6.50;99.90;;;;;;5132947;28;19914;-75
2022/01/06 08:25:51;;;;;;;;;;;6.60;99.90;;;;;;5133234;28;19908;-76
2022/01/06 08:28:17;;;;;;;;;;;6.50;99.90;;;;;;5144482;28;19907;-76
2022/01/06 08:30:42;;;;;;;;;;;6.60;99.90;;;;;;5126286;28;20374;-76
2022/01/06 08:33:08;;;;;;;;;;;6.70;99.90;;;;;;5132431;28;19911;-76
2022/01/06 08:35:34;;;;;;;;;;;6.80;99.90;;;;;;5133188;28;19919;-76
2022/01/06 08:37:59;;;;;;;;;;;6.90;99.90;;;;;;5132906;28;20268;-75
2022/01/06 08:40:25;;;;;;;;;;;7.00;99.90;;;;;;5132453;28;19915;-75
2022/01/06 08:42:51;;;;;;;;;;;7.00;99.90;;;;;;5137472;27;20372;-76
2022/01/06 08:45:17;;;;;;;;;;;7.10;99.90;;;;;;5120003;27;20427;-77
2022/01/06 08:47:43;;;;;;;;;;;7.10;99.90;;;;;;5139043;27;20001;-77
2022/01/06 08:50:09;;;;;;;;;;;7.20;99.90;;;;;;5153677;27;19907;-78
2022/01/06 08:52:35;;;;;;;;;;;7.30;99.90;;;;;;5131238;27;20298;-78
2022/01/06 08:55:01;;;;;;;;;;;7.30;99.90;;;;;;5142724;27;19908;-78
2022/01/06 08:57:26;;;;;;;;;;;7.30;99.90;;;;;;5141366;27;19976;-78
2022/01/06 08:59:52;;;;;;;;;;;7.30;99.90;;;;;;5138094;27;19923;-78
2022/01/06 09:02:17;;;;;;;;;;;7.30;99.90;;;;;;5142930;27;19926;-78
2022/01/06 09:04:43;;;;;;;;;;;7.40;99.90;;;;;;5147879;27;19919;-78
2022/01/06 09:07:09;;;;;;;;;;;7.50;99.90;;;;;;5144724;27;19915;-78
2022/01/06 09:09:36;;;;;;;;;;;7.60;99.90;;;;;;5146903;27;19914;-78
2022/01/06 09:12:02;;;;;;;;;;;7.60;99.90;;;;;;5137630;27;20435;-77
2022/01/06 09:14:27;;;;;;;;;;;7.70;99.90;;;;;;5156928;27;20012;-77
2022/01/06 09:16:54;;;;;;;;;;;7.80;99.90;;;;;;5157668;27;20259;-77
2022/01/06 09:19:19;;;;;;;;;;;7.90;99.90;;;;;;5156380;27;19915;-77
2022/01/06 09:21:45;;;;;;;;;;;8.00;99.90;;;;;;5157536;27;20430;-77
2022/01/06 09:24:11;;;;;;;;;;;8.00;99.90;;;;;;5156523;27;20408;-76
2022/01/06 09:26:37;;;;;;;;;;;8.00;99.90;;;;;;5157338;27;20005;-77
2022/01/06 09:29:04;;;;;;;;;;;8.10;99.90;;;;;;5157567;27;19911;-76
2022/01/06 09:31:29;;;;;;;;;;;8.10;99.90;;;;;;5156551;27;19914;-77
2022/01/06 09:33:55;;;;;;;;;;;8.20;99.90;;;;;;5156755;27;20240;-77
2022/01/06 09:36:20;;;;;;;;;;;8.20;99.90;;;;;;5155025;27;19911;-76
2022/01/06 09:38:46;;;;;;;;;;;8.20;99.90;;;;;;5138415;27;19954;-76
2022/01/06 09:41:12;;;;;;;;;;;8.20;99.90;;;;;;5155750;27;19907;-76
2022/01/06 09:43:38;;;;;;;;;;;8.30;99.90;;;;;;5135703;27;19911;-75
2022/01/06 09:46:06;;;;;;;;;;;8.30;99.90;;;;;;5143697;27;19994;-75
2022/01/06 09:48:33;;;;;;;;;;;8.40;99.90;;;;;;5145537;27;19919;-76
2022/01/06 09:50:59;;;;;;;;;;;8.40;99.90;;;;;;5150502;27;19918;-75
2022/01/06 09:53:26;;;;;;;;;;;8.50;99.90;;;;;;5155308;27;19907;-76
2022/01/06 09:55:52;;;;;;;;;;;8.60;99.90;;;;;;5155945;27;19913;-75
2022/01/06 09:58:21;;;;;;;;;;;8.60;99.90;;;;;;5155168;27;19907;-75
2022/01/06 10:00:47;;;;;;;;;;;8.70;99.90;;;;;;5155768;27;20377;-75
2022/01/06 10:03:13;;;;;;;;;;;8.70;99.90;;;;;;5154879;27;20018;-76
2022/01/06 10:05:38;;;;;;;;;;;8.60;99.90;;;;;;5155532;27;19908;-76
2022/01/06 10:08:05;;;;;;;;;;;8.60;99.90;;;;;;5137855;27;20378;-76
2022/01/06 10:10:30;;;;;;;;;;;8.70;99.90;;;;;;5115755;27;20270;-77
2022/01/06 10:13:00;;;;;;;;;;;8.70;99.90;;;;;;5134308;27;20006;-75
2022/01/06 10:15:27;;;;;;;;;;;8.80;99.90;;;;;;5134136;27;20048;-75
2022/01/06 10:17:53;;;;;;;;;;;8.90;99.90;;;;;;5139776;27;20006;-76
2022/01/06 10:20:21;;;;;;;;;;;8.80;99.90;;;;;;5144296;27;20279;-76
2022/01/06 10:22:51;;;;;;;;;;;8.80;99.90;;;;;;5149372;27;19994;-76
2022/01/06 10:25:17;;;;;;;;;;;8.80;99.90;;;;;;5142508;27;20245;-75
2022/01/06 10:27:44;;;;;;;;;;;8.70;99.90;;;;;;5144444;27;19907;-76
2022/01/06 10:30:10;;;;;;;;;;;8.70;99.90;;;;;;5153495;27;20283;-76
2022/01/06 10:32:37;;;;;;;;;;;8.70;99.90;;;;;;5154793;27;19907;-76
2022/01/06 10:35:04;;;;;;;;;;;8.70;99.90;;;;;;5154683;27;19914;-76
2022/01/06 10:37:31;;;;;;;;;;;8.70;99.90;;;;;;5154380;27;20327;-76
2022/01/06 10:40:01;;;;;;;;;;;8.70;99.90;;;;;;5154988;27;19955;-75
2022/01/06 10:42:29;;;;;;;;;;;8.80;99.90;;;;;;5154190;27;19918;-74
2022/01/06 10:44:57;;;;;;;;;;;8.80;99.90;;;;;;5155033;27;19915;-76
2022/01/06 10:47:29;;;;;;;;;;;8.80;99.90;;;;;;5154024;27;19908;-75
2022/01/06 10:50:06;;;;;;;;;;;8.90;99.90;;;;;;5154041;27;19911;-76
2022/01/06 10:52:32;;;;;;;;;;;8.90;99.90;;;;;;5154059;27;20228;-76
2022/01/06 10:55:07;;;;;;;;;;;9.10;99.90;;;;;;5154574;27;19907;-75
2022/01/06 10:57:32;;;;;;;;;;;9.20;99.90;;;;;;5135004;27;19934;-83
2022/01/06 10:59:58;;;;;;;;;;;9.20;99.90;;;;;;5135327;27;20746;-83
2022/01/06 11:02:27;;;;;;;;;;;9.00;99.90;;;;;;5133974;27;19998;-85
2022/01/06 11:04:52;;;;;;;;;;;8.70;99.90;;;;;;5167338;27;19907;-80
2022/01/06 11:07:18;;;;;;;;;;;8.40;99.90;;;;;;5162775;27;20822;-80
2022/01/06 11:09:49;;;;;;;;;;;8.20;99.90;;;;;;5156669;27;19915;-80
2022/01/06 11:12:26;;;;;;;;;;;8.10;99.90;;;;;;5153086;27;19971;-79
2022/01/06 11:14:52;;;;;;;;;;;8.00;99.90;;;;;;5153762;27;19990;-79
2022/01/06 11:17:21;;;;;;;;;;;7.90;99.90;;;;;;5153295;27;20002;-80
2022/01/06 11:19:50;;;;;;;;;;;7.80;99.90;;;;;;5153512;27;19916;-81
2022/01/06 11:22:22;;;;;;;;;;;7.60;99.90;;;;;;5154437;27;19914;-79
2022/01/06 11:24:52;;;;;;;;;;;7.60;99.90;;;;;;5135110;27;20403;-78
2022/01/06 11:27:28;;;;;;;;;;;7.60;99.90;;;;;;5152412;27;20264;-80
2022/01/06 11:29:53;;;;;;;;;;;7.60;99.90;;;;;;5153381;27;19908;-78
2022/01/06 11:32:23;;;;;;;;;;;7.60;99.90;;;;;;5152443;27;19914;-77
2022/01/06 11:35:11;;;;;;;;;;;7.70;99.90;;;;;;5153225;27;19907;-77
2022/01/06 11:37:41;;;;;;;;;;;7.70;99.90;;;;;;5153480;27;19907;-77
2022/01/06 11:40:07;;;;;;;;;;;7.80;99.90;;;;;;5153303;27;19921;-78
2022/01/06 11:42:32;;;;;;;;;;;7.80;99.90;;;;;;5152438;27;20326;-77
2022/01/06 11:44:58;;;;;;;;;;;7.80;99.90;;;;;;5153610;27;20329;-77
2022/01/06 11:47:28;;;;;;;;;;;7.90;99.90;;;;;;5152097;27;19949;-77
2022/01/06 11:50:04;;;;;;;;;;;8.00;99.90;;;;;;5153108;27;19918;-77
2022/01/06 11:52:30;;;;;;;;;;;8.10;99.90;;;;;;5164838;27;19990;-78
2022/01/06 11:54:56;;;;;;;;;;;8.20;99.90;;;;;;5163746;27;19939;-77
2022/01/06 11:57:35;;;;;;;;;;;8.30;99.90;;;;;;5133295;27;19907;-77
2022/01/06 12:00:13;;;;;;;;;;;8.40;99.90;;;;;;5153381;27;19919;-77
2022/01/06 12:02:39;;;;;;;;;;;8.50;99.90;;;;;;5132826;27;19924;-77
2022/01/06 12:05:04;;;;;;;;;;;8.60;99.90;;;;;;5131844;27;20252;-77
2022/01/06 12:07:30;;;;;;;;;;;8.60;99.90;;;;;;5131253;27;20403;-77
2022/01/06 12:10:06;;;;;;;;;;;8.60;99.90;;;;;;5132744;27;20006;-77
2022/01/06 12:12:33;;;;;;;;;;;8.60;99.90;;;;;;5132122;27;20009;-77
2022/01/06 12:15:09;;;;;;;;;;;8.70;99.90;;;;;;5133292;27;19911;-77
2022/01/06 12:17:35;;;;;;;;;;;8.70;99.90;;;;;;5114693;28;19957;-77
2022/01/06 12:20:03;;;;;;;;;;;8.80;99.90;;;;;;5132946;28;19951;-77
2022/01/06 12:22:28;;;;;;;;;;;8.80;99.90;;;;;;5132535;28;19976;-77
2022/01/06 12:24:58;;;;;;;;;;;8.90;99.90;;;;;;5133290;28;20297;-77
2022/01/06 12:27:24;;;;;;;;;;;9.00;99.90;;;;;;5132412;28;20364;-77
2022/01/06 12:29:49;;;;;;;;;;;9.00;99.90;;;;;;5133139;28;19953;-77
2022/01/06 12:32:18;;;;;;;;;;;8.90;99.90;;;;;;5131079;28;19914;-76
2022/01/06 12:34:50;;;;;;;;;;;8.90;99.90;;;;;;5133252;28;20036;-77
2022/01/06 12:37:22;;;;;;;;;;;8.90;99.90;;;;;;5151179;27;19950;-75
2022/01/06 12:39:48;;;;;;;;;;;8.90;99.90;;;;;;5157984;27;19915;-76
2022/01/06 12:42:14;;;;;;;;;;;8.90;99.90;;;;;;5138721;27;19966;-75
2022/01/06 12:44:39;;;;;;;;;;;8.90;99.90;;;;;;5157876;27;19908;-76
2022/01/06 12:47:05;;;;;;;;;;;8.90;99.90;;;;;;5157614;27;20386;-76
2022/01/06 12:49:31;;;;;;;;;;;8.90;99.90;;;;;;5156857;27;20083;-76
2022/01/06 12:51:57;;;;;;;;;;;9.00;99.90;;;;;;5157728;27;19907;-76
2022/01/06 12:54:23;;;;;;;;;;;9.00;99.90;;;;;;5156679;27;20352;-75
2022/01/06 12:56:51;;;;;;;;;;;9.00;99.90;;;;;;5157958;27;19907;-76
2022/01/06 12:59:21;;;;;;;;;;;8.90;99.90;;;;;;5156993;27;19958;-74
2022/01/06 13:01:51;;;;;;;;;;;8.80;99.90;;;;;;5139040;27;19971;-76
2022/01/06 13:04:21;;;;;;;;;;;8.80;99.90;;;;;;5157007;27;20313;-75
2022/01/06 13:06:47;;;;;;;;;;;8.70;99.90;;;;;;5156761;27;19910;-75
2022/01/06 13:09:17;;;;;;;;;;;8.60;99.90;;;;;;5156611;27;19958;-75
2022/01/06 13:11:51;;;;;;;;;;;8.60;99.90;;;;;;5138756;27;19915;-76
2022/01/06 13:14:31;;;;;;;;;;;8.50;99.90;;;;;;5156199;27;19914;-76
2022/01/06 13:17:15;;;;;;;;;;;8.40;99.90;;;;;;5155108;27;19907;-77
2022/01/06 13:19:58;;;;;;;;;;;8.30;99.90;;;;;;5142804;27;20356;-77
2022/01/06 13:22:36;;;;;;;;;;;8.20;99.90;;;;;;5148328;27;19919;-77
2022/01/06 13:25:11;;;;;;;;;;;8.10;99.90;;;;;;5146165;27;19940;-74
2022/01/06 13:27:37;;;;;;;;;;;8.10;99.90;;;;;;5151113;27;19952;-78
2022/01/06 13:30:03;;;;;;;;;;;8.00;99.90;;;;;;5156332;27;19915;-76
2022/01/06 13:32:29;;;;;;;;;;;7.90;99.90;;;;;;5155851;27;19907;-76
2022/01/06 13:35:03;;;;;;;;;;;7.90;99.90;;;;;;5149760;27;20339;-76
2022/01/06 13:37:29;;;;;;;;;;;7.90;99.90;;;;;;5140826;27;19919;-77
2022/01/06 13:39:59;;;;;;;;;;;7.80;99.90;;;;;;5144542;27;19955;-76
2022/01/06 13:42:29;;;;;;;;;;;7.80;99.90;;;;;;5155669;27;19907;-77
2022/01/06 13:45:01;;;;;;;;;;;7.80;99.90;;;;;;5156694;27;19960;-77
2022/01/06 13:47:36;;;;;;;;;;;7.80;99.90;;;;;;5154260;27;19942;-76
2022/01/06 13:52:51;;;;;;;;;;;7.90;99.90;;;;;;5135949;27;20390;-78
2022/01/06 13:55:16;;;;;;;;;;;7.80;99.90;;;;;;5136597;27;20006;-76
2022/01/06 13:57:42;;;;;;;;;;;7.80;99.90;;;;;;5147257;27;19918;-79
2022/01/06 14:00:08;;;;;;;;;;;7.70;99.90;;;;;;5145300;27;20248;-78
2022/01/06 14:02:34;;;;;;;;;;;7.60;99.90;;;;;;5133562;27;20431;-78
2022/01/06 14:05:06;;;;;;;;;;;7.60;99.90;;;;;;5134699;27;19907;-79
2022/01/06 14:07:31;;;;;;;;;;;7.60;99.90;;;;;;5140434;27;19911;-78
2022/01/06 14:09:57;;;;;;;;;;;7.70;99.90;;;;;;5152539;27;20001;-78
2022/01/06 14:12:23;;;;;;;;;;;7.70;99.90;;;;;;5151617;27;19919;-79
2022/01/06 14:14:48;;;;;;;;;;;7.60;99.90;;;;;;5156874;27;20347;-85
2022/01/06 14:17:14;;;;;;;;;;;7.50;99.90;;;;;;5137524;27;19911;-83
2022/01/06 14:19:40;;;;;;;;;;;7.30;99.90;;;;;;5122402;27;19923;-81
2022/01/06 14:22:06;;;;;;;;;;;7.20;99.90;;;;;;5143992;27;20283;-79
2022/01/06 14:24:34;;;;;;;;;;;7.10;99.90;;;;;;5143817;27;19908;-79
2022/01/06 14:27:00;;;;;;;;;;;7.10;99.90;;;;;;5120217;27;19911;-79
2022/01/06 14:29:25;;;;;;;;;;;7.10;99.90;;;;;;5145551;27;19907;-79
2022/01/06 14:31:51;;;;;;;;;;;7.20;99.90;;;;;;5140461;27;19914;-78
2022/01/06 14:34:16;;;;;;;;;;;7.20;99.90;;;;;;5134821;27;20405;-77